sensor_id;sensor_type;location;lat;lon;timestamp;pressure;altitude;pressure_sealevel;temperature;humidity
73767;BME280;62074;43.530;-5.646;2022-09-09T00:00:55;101745.41;;;21.00;61.46
73767;BME280;62074;43.530;-5.646;2022-09-09T00:03:27;101744.94;;;21.09;61.06
73767;BME280;62074;43.530;-5.646;2022-09-09T00:06:14;101756.34;;;21.07;61.09
73767;BME280;62074;43.530;-5.646;2022-09-09T00:09:00;101747.66;;;21.03;61.47
73767;BME280;62074;43.530;-5.646;2022-09-09T00:11:43;101743.50;;;21.06;61.26
73767;BME280;62074;43.530;-5.646;2022-09-09T00:17:12;101746.81;;;21.03;61.51
73767;BME280;62074;43.530;-5.646;2022-09-09T00:19:52;101750.75;;;21.07;61.65
73767;BME280;62074;43.530;-5.646;2022-09-09T00:22:22;101743.44;;;21.01;61.79
73767;BME280;62074;43.530;-5.646;2022-09-09T00:24:53;101736.31;;;21.10;61.31
73767;BME280;62074;43.530;-5.646;2022-09-09T00:27:33;101746.13;;;21.18;61.34
73767;BME280;62074;43.530;-5.646;2022-09-09T00:30:15;101738.06;;;21.16;61.62
73767;BME280;62074;43.530;-5.646;2022-09-09T00:32:44;101730.22;;;21.13;61.82
73767;BME280;62074;43.530;-5.646;2022-09-09T00:37:35;101719.19;;;21.23;61.10
73767;BME280;62074;43.530;-5.646;2022-09-09T00:40:04;101723.13;;;21.27;60.87
73767;BME280;62074;43.530;-5.646;2022-09-09T00:42:42;101727.91;;;21.32;60.75
73767;BME280;62074;43.530;-5.646;2022-09-09T00:47:53;101718.63;;;21.21;61.05
73767;BME280;62074;43.530;-5.646;2022-09-09T00:56:20;101740.66;;;21.01;62.01
73767;BME280;62074;43.530;-5.646;2022-09-09T00:59:16;101737.22;;;20.89;61.90
73767;BME280;62074;43.530;-5.646;2022-09-09T01:01:44;101732.69;;;20.83;61.55
73767;BME280;62074;43.530;-5.646;2022-09-09T01:04:13;101737.31;;;20.72;61.04
73767;BME280;62074;43.530;-5.646;2022-09-09T01:06:43;101729.41;;;20.59;61.14
73767;BME280;62074;43.530;-5.646;2022-09-09T01:09:25;101746.97;;;20.64;60.98
73767;BME280;62074;43.530;-5.646;2022-09-09T01:17:21;101746.00;;;20.76;60.79
73767;BME280;62074;43.530;-5.646;2022-09-09T01:20:10;101750.91;;;20.68;60.87
73767;BME280;62074;43.530;-5.646;2022-09-09T01:25:27;101731.97;;;20.44;61.52
73767;BME280;62074;43.530;-5.646;2022-09-09T01:27:59;101739.81;;;20.47;61.48
73767;BME280;62074;43.530;-5.646;2022-09-09T01:30:26;101746.59;;;20.56;61.19
73767;BME280;62074;43.530;-5.646;2022-09-09T01:32:57;101730.09;;;20.49;61.50
73767;BME280;62074;43.530;-5.646;2022-09-09T01:37:55;101747.53;;;20.66;61.11
73767;BME280;62074;43.530;-5.646;2022-09-09T01:40:21;101732.28;;;20.69;60.81
73767;BME280;62074;43.530;-5.646;2022-09-09T01:42:47;101735.00;;;20.64;62.19
73767;BME280;62074;43.530;-5.646;2022-09-09T01:45:13;101749.69;;;20.59;61.60
73767;BME280;62074;43.530;-5.646;2022-09-09T01:47:39;101739.00;;;20.73;60.77
73767;BME280;62074;43.530;-5.646;2022-09-09T01:50:07;101738.63;;;20.64;61.90
73767;BME280;62074;43.530;-5.646;2022-09-09T01:52:37;101754.53;;;20.69;62.10
73767;BME280;62074;43.530;-5.646;2022-09-09T01:55:04;101740.38;;;20.71;61.75
73767;BME280;62074;43.530;-5.646;2022-09-09T01:57:54;101754.78;;;20.67;61.78
73767;BME280;62074;43.530;-5.646;2022-09-09T02:00:26;101740.69;;;20.74;61.63
73767;BME280;62074;43.530;-5.646;2022-09-09T02:03:00;101744.06;;;20.76;61.79
73767;BME280;62074;43.530;-5.646;2022-09-09T02:05:41;101741.41;;;20.64;61.87
73767;BME280;62074;43.530;-5.646;2022-09-09T02:08:21;101744.41;;;20.58;62.14
73767;BME280;62074;43.530;-5.646;2022-09-09T02:11:08;101744.41;;;20.58;62.06
73767;BME280;62074;43.530;-5.646;2022-09-09T02:13:35;101745.25;;;20.58;62.30
73767;BME280;62074;43.530;-5.646;2022-09-09T02:17:03;101758.31;;;20.58;62.17
73767;BME280;62074;43.530;-5.646;2022-09-09T02:21:52;101758.69;;;20.66;62.04
73767;BME280;62074;43.530;-5.646;2022-09-09T02:24:20;101757.91;;;20.71;61.91
73767;BME280;62074;43.530;-5.646;2022-09-09T02:26:49;101765.09;;;20.67;62.09
73767;BME280;62074;43.530;-5.646;2022-09-09T02:29:27;101750.53;;;20.60;62.28
73767;BME280;62074;43.530;-5.646;2022-09-09T02:31:57;101757.25;;;20.64;62.43
73767;BME280;62074;43.530;-5.646;2022-09-09T02:34:24;101747.44;;;20.56;62.31
73767;BME280;62074;43.530;-5.646;2022-09-09T02:36:53;101774.63;;;20.49;63.01
73767;BME280;62074;43.530;-5.646;2022-09-09T02:39:20;101763.56;;;20.54;62.64
73767;BME280;62074;43.530;-5.646;2022-09-09T02:41:57;101761.88;;;20.53;62.79
73767;BME280;62074;43.530;-5.646;2022-09-09T02:44:23;101762.81;;;20.64;61.84
73767;BME280;62074;43.530;-5.646;2022-09-09T02:47:13;101763.91;;;20.63;61.56
73767;BME280;62074;43.530;-5.646;2022-09-09T02:50:16;101758.09;;;20.43;62.64
73767;BME280;62074;43.530;-5.646;2022-09-09T02:58:09;101759.41;;;20.57;62.20
73767;BME280;62074;43.530;-5.646;2022-09-09T03:00:38;101764.41;;;20.55;62.13
73767;BME280;62074;43.530;-5.646;2022-09-09T03:03:06;101761.63;;;20.55;62.46
73767;BME280;62074;43.530;-5.646;2022-09-09T03:05:32;101762.38;;;20.50;62.28
73767;BME280;62074;43.530;-5.646;2022-09-09T03:07:58;101764.22;;;20.40;62.28
73767;BME280;62074;43.530;-5.646;2022-09-09T03:10:23;101765.25;;;20.55;62.21
73767;BME280;62074;43.530;-5.646;2022-09-09T03:12:49;101766.78;;;20.46;62.29
73767;BME280;62074;43.530;-5.646;2022-09-09T03:15:16;101762.13;;;20.52;62.15
73767;BME280;62074;43.530;-5.646;2022-09-09T03:17:41;101749.25;;;20.46;62.26
73767;BME280;62074;43.530;-5.646;2022-09-09T03:20:07;101756.75;;;20.45;62.43
73767;BME280;62074;43.530;-5.646;2022-09-09T03:22:34;101760.00;;;20.37;62.08
73767;BME280;62074;43.530;-5.646;2022-09-09T03:25:00;101741.84;;;20.34;61.93
73767;BME280;62074;43.530;-5.646;2022-09-09T03:27:26;101749.19;;;20.41;62.11
73767;BME280;62074;43.530;-5.646;2022-09-09T03:29:51;101747.53;;;20.40;62.06
73767;BME280;62074;43.530;-5.646;2022-09-09T03:32:17;101743.94;;;20.44;62.40
73767;BME280;62074;43.530;-5.646;2022-09-09T03:34:43;101745.56;;;20.40;62.39
73767;BME280;62074;43.530;-5.646;2022-09-09T03:37:09;101754.22;;;20.44;62.33
73767;BME280;62074;43.530;-5.646;2022-09-09T03:39:34;101747.81;;;20.43;62.26
73767;BME280;62074;43.530;-5.646;2022-09-09T03:42:00;101740.13;;;20.50;62.40
73767;BME280;62074;43.530;-5.646;2022-09-09T03:44:32;101747.06;;;20.48;62.62
73767;BME280;62074;43.530;-5.646;2022-09-09T03:46:58;101747.78;;;20.38;61.97
73767;BME280;62074;43.530;-5.646;2022-09-09T03:49:26;101744.53;;;20.46;62.01
73767;BME280;62074;43.530;-5.646;2022-09-09T03:51:55;101737.34;;;20.50;62.04
73767;BME280;62074;43.530;-5.646;2022-09-09T03:54:22;101749.03;;;20.30;62.72
73767;BME280;62074;43.530;-5.646;2022-09-09T03:56:48;101745.25;;;20.37;62.04
73767;BME280;62074;43.530;-5.646;2022-09-09T03:59:13;101747.78;;;20.38;62.08
73767;BME280;62074;43.530;-5.646;2022-09-09T04:01:39;101739.59;;;20.31;61.84
73767;BME280;62074;43.530;-5.646;2022-09-09T04:04:05;101743.91;;;20.39;61.99
73767;BME280;62074;43.530;-5.646;2022-09-09T04:06:30;101744.75;;;20.40;61.79
73767;BME280;62074;43.530;-5.646;2022-09-09T04:08:56;101718.44;;;20.30;61.55
73767;BME280;62074;43.530;-5.646;2022-09-09T04:11:21;101740.31;;;20.44;61.61
73767;BME280;62074;43.530;-5.646;2022-09-09T04:13:47;101718.03;;;20.39;61.51
73767;BME280;62074;43.530;-5.646;2022-09-09T04:16:13;101745.47;;;20.35;61.54
73767;BME280;62074;43.530;-5.646;2022-09-09T04:18:39;101738.34;;;20.39;61.78
73767;BME280;62074;43.530;-5.646;2022-09-09T04:21:05;101733.44;;;20.29;61.88
73767;BME280;62074;43.530;-5.646;2022-09-09T04:23:32;101740.63;;;20.25;61.94
73767;BME280;62074;43.530;-5.646;2022-09-09T04:25:59;101745.59;;;20.23;62.27
73767;BME280;62074;43.530;-5.646;2022-09-09T04:28:27;101741.19;;;20.27;62.02
73767;BME280;62074;43.530;-5.646;2022-09-09T04:30:53;101738.75;;;20.31;61.73
73767;BME280;62074;43.530;-5.646;2022-09-09T04:33:19;101738.34;;;20.22;62.07
73767;BME280;62074;43.530;-5.646;2022-09-09T04:35:47;101734.88;;;20.32;61.76
73767;BME280;62074;43.530;-5.646;2022-09-09T04:38:13;101741.72;;;20.24;62.47
73767;BME280;62074;43.530;-5.646;2022-09-09T04:40:38;101742.63;;;20.30;62.21
73767;BME280;62074;43.530;-5.646;2022-09-09T04:43:08;101743.59;;;20.19;62.27
73767;BME280;62074;43.530;-5.646;2022-09-09T04:45:34;101744.22;;;20.04;62.82
73767;BME280;62074;43.530;-5.646;2022-09-09T04:48:00;101748.59;;;20.17;63.13
73767;BME280;62074;43.530;-5.646;2022-09-09T04:50:25;101743.28;;;20.15;62.87
73767;BME280;62074;43.530;-5.646;2022-09-09T04:52:51;101744.81;;;20.28;62.36
73767;BME280;62074;43.530;-5.646;2022-09-09T04:55:16;101750.53;;;20.16;62.74
73767;BME280;62074;43.530;-5.646;2022-09-09T04:57:42;101747.75;;;20.16;62.86
73767;BME280;62074;43.530;-5.646;2022-09-09T05:00:08;101733.50;;;20.13;62.80
73767;BME280;62074;43.530;-5.646;2022-09-09T05:02:38;101749.09;;;20.14;62.36
73767;BME280;62074;43.530;-5.646;2022-09-09T05:05:04;101760.81;;;20.16;62.56
73767;BME280;62074;43.530;-5.646;2022-09-09T05:07:30;101754.59;;;20.30;65.00
73767;BME280;62074;43.530;-5.646;2022-09-09T05:09:56;101761.31;;;20.13;62.53
73767;BME280;62074;43.530;-5.646;2022-09-09T05:12:23;101751.69;;;19.82;62.54
73767;BME280;62074;43.530;-5.646;2022-09-09T05:14:49;101764.91;;;19.75;62.97
73767;BME280;62074;43.530;-5.646;2022-09-09T05:17:15;101752.97;;;19.57;62.72
73767;BME280;62074;43.530;-5.646;2022-09-09T05:19:41;101763.00;;;19.58;62.56
73767;BME280;62074;43.530;-5.646;2022-09-09T05:22:07;101763.41;;;19.50;63.14
73767;BME280;62074;43.530;-5.646;2022-09-09T05:24:33;101772.53;;;19.62;62.54
73767;BME280;62074;43.530;-5.646;2022-09-09T05:26:58;101767.88;;;19.68;62.37
73767;BME280;62074;43.530;-5.646;2022-09-09T05:29:27;101762.16;;;19.58;61.90
73767;BME280;62074;43.530;-5.646;2022-09-09T05:31:52;101773.81;;;19.93;60.91
73767;BME280;62074;43.530;-5.646;2022-09-09T05:34:18;101772.75;;;19.78;61.45
73767;BME280;62074;43.530;-5.646;2022-09-09T05:36:43;101774.19;;;19.80;61.65
73767;BME280;62074;43.530;-5.646;2022-09-09T05:39:08;101772.91;;;19.88;62.26
73767;BME280;62074;43.530;-5.646;2022-09-09T05:41:34;101765.03;;;20.01;62.64
73767;BME280;62074;43.530;-5.646;2022-09-09T05:44:01;101773.94;;;20.04;62.73
73767;BME280;62074;43.530;-5.646;2022-09-09T05:46:26;101772.81;;;19.99;63.50
73767;BME280;62074;43.530;-5.646;2022-09-09T05:48:52;101769.19;;;19.99;63.32
73767;BME280;62074;43.530;-5.646;2022-09-09T05:51:21;101777.88;;;19.86;64.09
73767;BME280;62074;43.530;-5.646;2022-09-09T05:53:48;101777.34;;;19.89;64.19
73767;BME280;62074;43.530;-5.646;2022-09-09T05:56:16;101773.91;;;19.98;63.83
73767;BME280;62074;43.530;-5.646;2022-09-09T05:58:45;101762.44;;;19.95;63.40
73767;BME280;62074;43.530;-5.646;2022-09-09T06:01:22;101771.53;;;19.90;63.75
73767;BME280;62074;43.530;-5.646;2022-09-09T06:03:49;101789.06;;;19.91;64.62
73767;BME280;62074;43.530;-5.646;2022-09-09T06:06:21;101776.13;;;19.80;64.69
73767;BME280;62074;43.530;-5.646;2022-09-09T06:08:47;101787.25;;;20.01;63.80
73767;BME280;62074;43.530;-5.646;2022-09-09T06:11:15;101790.47;;;20.10;63.43
73767;BME280;62074;43.530;-5.646;2022-09-09T06:13:42;101785.53;;;19.95;63.92
73767;BME280;62074;43.530;-5.646;2022-09-09T06:16:16;101796.34;;;20.14;63.21
73767;BME280;62074;43.530;-5.646;2022-09-09T06:18:42;101792.81;;;20.18;63.01
73767;BME280;62074;43.530;-5.646;2022-09-09T06:21:16;101789.69;;;20.15;63.25
73767;BME280;62074;43.530;-5.646;2022-09-09T06:23:42;101786.16;;;20.02;63.83
73767;BME280;62074;43.530;-5.646;2022-09-09T06:26:18;101785.66;;;20.06;63.34
73767;BME280;62074;43.530;-5.646;2022-09-09T06:28:49;101774.28;;;20.07;62.84
73767;BME280;62074;43.530;-5.646;2022-09-09T06:31:16;101785.41;;;20.07;62.63
73767;BME280;62074;43.530;-5.646;2022-09-09T06:33:43;101790.72;;;20.09;62.68
73767;BME280;62074;43.530;-5.646;2022-09-09T06:36:15;101808.66;;;20.18;62.82
73767;BME280;62074;43.530;-5.646;2022-09-09T06:38:41;101805.63;;;20.19;62.57
73767;BME280;62074;43.530;-5.646;2022-09-09T06:41:09;101803.31;;;19.94;63.21
73767;BME280;62074;43.530;-5.646;2022-09-09T06:43:35;101807.25;;;19.98;63.73
73767;BME280;62074;43.530;-5.646;2022-09-09T06:46:05;101807.81;;;20.17;62.87
73767;BME280;62074;43.530;-5.646;2022-09-09T06:48:30;101817.06;;;20.23;62.72
73767;BME280;62074;43.530;-5.646;2022-09-09T06:51:15;101821.22;;;20.20;62.76
73767;BME280;62074;43.530;-5.646;2022-09-09T06:53:43;101810.50;;;20.12;62.98
73767;BME280;62074;43.530;-5.646;2022-09-09T06:58:35;101816.28;;;19.89;63.21
73767;BME280;62074;43.530;-5.646;2022-09-09T07:01:05;101825.38;;;20.01;63.68
73767;BME280;62074;43.530;-5.646;2022-09-09T07:03:31;101810.88;;;19.99;62.96
73767;BME280;62074;43.530;-5.646;2022-09-09T07:05:58;101822.16;;;20.09;63.32
73767;BME280;62074;43.530;-5.646;2022-09-09T07:08:24;101827.97;;;20.08;63.50
73767;BME280;62074;43.530;-5.646;2022-09-09T07:10:51;101816.84;;;20.08;63.74
73767;BME280;62074;43.530;-5.646;2022-09-09T07:13:23;101817.34;;;20.05;63.75
73767;BME280;62074;43.530;-5.646;2022-09-09T07:15:51;101810.53;;;19.95;63.43
73767;BME280;62074;43.530;-5.646;2022-09-09T07:18:16;101829.47;;;20.15;62.65
73767;BME280;62074;43.530;-5.646;2022-09-09T07:20:42;101820.97;;;20.05;62.78
73767;BME280;62074;43.530;-5.646;2022-09-09T07:23:07;101826.19;;;20.18;62.96
73767;BME280;62074;43.530;-5.646;2022-09-09T07:25:33;101831.78;;;20.23;62.08
73767;BME280;62074;43.530;-5.646;2022-09-09T07:27:59;101844.09;;;20.27;62.34
73767;BME280;62074;43.530;-5.646;2022-09-09T07:30:25;101834.31;;;20.25;62.38
73767;BME280;62074;43.530;-5.646;2022-09-09T07:32:53;101819.63;;;20.08;62.67
73767;BME280;62074;43.530;-5.646;2022-09-09T07:35:19;101829.34;;;20.27;60.73
73767;BME280;62074;43.530;-5.646;2022-09-09T07:37:45;101828.72;;;20.20;61.51
73767;BME280;62074;43.530;-5.646;2022-09-09T07:40:10;101818.00;;;20.12;61.50
73767;BME280;62074;43.530;-5.646;2022-09-09T07:42:36;101828.03;;;20.13;61.48
73767;BME280;62074;43.530;-5.646;2022-09-09T07:45:03;101818.88;;;19.95;62.54
73767;BME280;62074;43.530;-5.646;2022-09-09T07:47:29;101823.81;;;20.10;62.29
73767;BME280;62074;43.530;-5.646;2022-09-09T07:49:54;101838.41;;;20.17;62.41
73767;BME280;62074;43.530;-5.646;2022-09-09T07:52:20;101835.16;;;20.25;62.52
73767;BME280;62074;43.530;-5.646;2022-09-09T07:54:46;101832.22;;;20.32;61.99
73767;BME280;62074;43.530;-5.646;2022-09-09T07:57:12;101835.75;;;20.27;61.84
73767;BME280;62074;43.530;-5.646;2022-09-09T07:59:37;101854.31;;;20.39;61.80
73767;BME280;62074;43.530;-5.646;2022-09-09T08:02:03;101830.19;;;20.27;62.08
73767;BME280;62074;43.530;-5.646;2022-09-09T08:04:29;101820.41;;;20.25;61.68
73767;BME280;62074;43.530;-5.646;2022-09-09T08:06:59;101838.59;;;20.49;61.39
73767;BME280;62074;43.530;-5.646;2022-09-09T08:09:26;101842.75;;;20.47;61.74
73767;BME280;62074;43.530;-5.646;2022-09-09T08:11:55;101837.19;;;20.30;61.76
73767;BME280;62074;43.530;-5.646;2022-09-09T08:14:22;101835.94;;;20.38;61.51
73767;BME280;62074;43.530;-5.646;2022-09-09T08:16:49;101845.59;;;20.52;61.54
73767;BME280;62074;43.530;-5.646;2022-09-09T08:19:15;101845.09;;;20.55;61.10
73767;BME280;62074;43.530;-5.646;2022-09-09T08:21:43;101840.94;;;20.57;60.97
73767;BME280;62074;43.530;-5.646;2022-09-09T08:24:09;101842.81;;;20.52;62.00
73767;BME280;62074;43.530;-5.646;2022-09-09T08:26:42;101856.97;;;20.50;61.80
73767;BME280;62074;43.530;-5.646;2022-09-09T08:29:09;101860.19;;;20.42;62.18
73767;BME280;62074;43.530;-5.646;2022-09-09T08:31:50;101847.63;;;20.56;61.17
73767;BME280;62074;43.530;-5.646;2022-09-09T08:34:17;101850.25;;;20.68;60.66
73767;BME280;62074;43.530;-5.646;2022-09-09T08:36:46;101842.69;;;20.63;60.69
73767;BME280;62074;43.530;-5.646;2022-09-09T08:39:14;101839.69;;;20.48;60.61
73767;BME280;62074;43.530;-5.646;2022-09-09T08:45:00;101864.16;;;20.68;60.33
73767;BME280;62074;43.530;-5.646;2022-09-09T08:47:39;101859.13;;;20.65;60.42
73767;BME280;62074;43.530;-5.646;2022-09-09T08:50:31;101859.84;;;20.77;59.93
73767;BME280;62074;43.530;-5.646;2022-09-09T08:58:18;101863.25;;;21.06;58.30
73767;BME280;62074;43.530;-5.646;2022-09-09T09:09:06;101867.06;;;21.00;58.96
73767;BME280;62074;43.530;-5.646;2022-09-09T09:11:50;101855.66;;;21.01;58.48
73767;BME280;62074;43.530;-5.646;2022-09-09T09:16:53;101865.97;;;21.23;58.00
73767;BME280;62074;43.530;-5.646;2022-09-09T09:19:21;101884.53;;;21.17;56.53
73767;BME280;62074;43.530;-5.646;2022-09-09T09:22:01;101872.00;;;21.15;55.97
73767;BME280;62074;43.530;-5.646;2022-09-09T09:24:51;101883.47;;;20.96;57.18
73767;BME280;62074;43.530;-5.646;2022-09-09T09:27:39;101877.97;;;21.23;56.62
73767;BME280;62074;43.530;-5.646;2022-09-09T09:32:40;101876.63;;;21.53;55.52
73767;BME280;62074;43.530;-5.646;2022-09-09T09:35:13;101885.13;;;21.68;56.07
73767;BME280;62074;43.530;-5.646;2022-09-09T09:37:40;101892.06;;;21.65;55.68
73767;BME280;62074;43.530;-5.646;2022-09-09T09:40:11;101895.38;;;21.62;56.42
73767;BME280;62074;43.530;-5.646;2022-09-09T09:42:38;101886.84;;;21.74;55.34
73767;BME280;62074;43.530;-5.646;2022-09-09T09:47:46;101892.38;;;21.69;55.20
73767;BME280;62074;43.530;-5.646;2022-09-09T09:50:19;101894.38;;;21.74;54.96
73767;BME280;62074;43.530;-5.646;2022-09-09T09:52:54;101889.63;;;21.74;54.72
73767;BME280;62074;43.530;-5.646;2022-09-09T09:55:21;101889.25;;;21.65;55.35
73767;BME280;62074;43.530;-5.646;2022-09-09T09:57:48;101898.13;;;21.89;55.14
73767;BME280;62074;43.530;-5.646;2022-09-09T10:00:22;101899.72;;;22.07;55.18
73767;BME280;62074;43.530;-5.646;2022-09-09T10:02:49;101894.81;;;22.24;53.84
73767;BME280;62074;43.530;-5.646;2022-09-09T10:05:28;101892.38;;;22.38;52.92
73767;BME280;62074;43.530;-5.646;2022-09-09T10:08:20;101904.59;;;22.74;52.27
73767;BME280;62074;43.530;-5.646;2022-09-09T10:11:18;101896.09;;;22.54;51.82
73767;BME280;62074;43.530;-5.646;2022-09-09T10:14:20;101900.13;;;22.73;50.61
73767;BME280;62074;43.530;-5.646;2022-09-09T10:19:32;101892.25;;;22.60;50.54
73767;BME280;62074;43.530;-5.646;2022-09-09T10:30:24;101899.34;;;29.87;34.36
73767;BME280;62074;43.530;-5.646;2022-09-09T10:33:04;101880.16;;;32.63;29.02
73767;BME280;62074;43.530;-5.646;2022-09-09T10:35:53;101883.56;;;35.13;25.78
73767;BME280;62074;43.530;-5.646;2022-09-09T10:38:42;101895.13;;;36.25;24.18
73767;BME280;62074;43.530;-5.646;2022-09-09T10:44:17;101898.47;;;36.43;21.95
73767;BME280;62074;43.530;-5.646;2022-09-09T10:47:04;101897.84;;;37.12;21.98
73767;BME280;62074;43.530;-5.646;2022-09-09T10:59:58;101894.63;;;40.07;19.72
73767;BME280;62074;43.530;-5.646;2022-09-09T11:02:31;101902.47;;;40.47;19.59
73767;BME280;62074;43.530;-5.646;2022-09-09T11:04:59;101901.34;;;41.65;17.77
73767;BME280;62074;43.530;-5.646;2022-09-09T11:07:39;101893.97;;;40.61;18.75
73767;BME280;62074;43.530;-5.646;2022-09-09T11:10:18;101896.63;;;42.12;18.06
73767;BME280;62074;43.530;-5.646;2022-09-09T11:12:49;101891.69;;;42.12;17.41
73767;BME280;62074;43.530;-5.646;2022-09-09T11:15:21;101899.94;;;42.24;18.07
73767;BME280;62074;43.530;-5.646;2022-09-09T11:17:57;101902.38;;;42.08;17.73
73767;BME280;62074;43.530;-5.646;2022-09-09T11:20:25;101910.44;;;39.60;21.25
73767;BME280;62074;43.530;-5.646;2022-09-09T11:23:02;101914.81;;;40.92;19.78
73767;BME280;62074;43.530;-5.646;2022-09-09T11:31:21;101911.97;;;43.01;16.26
73767;BME280;62074;43.530;-5.646;2022-09-09T11:39:35;101908.22;;;43.39;16.37
73767;BME280;62074;43.530;-5.646;2022-09-09T11:44:41;101901.19;;;43.40;16.52
73767;BME280;62074;43.530;-5.646;2022-09-09T11:47:39;101903.69;;;42.53;17.11
73767;BME280;62074;43.530;-5.646;2022-09-09T11:52:42;101900.47;;;44.83;15.68
73767;BME280;62074;43.530;-5.646;2022-09-09T11:55:33;101909.97;;;45.62;14.43
73767;BME280;62074;43.530;-5.646;2022-09-09T11:58:00;101889.50;;;44.56;14.77
73767;BME280;62074;43.530;-5.646;2022-09-09T12:00:36;101907.38;;;43.32;16.16
73767;BME280;62074;43.530;-5.646;2022-09-09T12:03:03;101902.00;;;42.34;16.40
73767;BME280;62074;43.530;-5.646;2022-09-09T12:05:44;101896.75;;;44.23;14.28
73767;BME280;62074;43.530;-5.646;2022-09-09T12:08:15;101891.44;;;45.86;13.08
73767;BME280;62074;43.530;-5.646;2022-09-09T12:10:54;101899.44;;;46.09;12.89
73767;BME280;62074;43.530;-5.646;2022-09-09T12:13:22;101882.28;;;45.23;14.18
73767;BME280;62074;43.530;-5.646;2022-09-09T12:15:56;101905.19;;;43.79;14.99
73767;BME280;62074;43.530;-5.646;2022-09-09T12:18:35;101903.94;;;43.87;14.84
73767;BME280;62074;43.530;-5.646;2022-09-09T12:21:29;101902.31;;;44.55;14.83
73767;BME280;62074;43.530;-5.646;2022-09-09T12:24:10;101911.19;;;45.64;13.62
73767;BME280;62074;43.530;-5.646;2022-09-09T12:26:41;101910.88;;;44.07;15.24
73767;BME280;62074;43.530;-5.646;2022-09-09T12:37:40;101908.56;;;44.47;14.85
73767;BME280;62074;43.530;-5.646;2022-09-09T12:40:23;101894.44;;;41.84;17.98
73767;BME280;62074;43.530;-5.646;2022-09-09T12:42:49;101903.22;;;44.97;15.54
73767;BME280;62074;43.530;-5.646;2022-09-09T12:45:20;101912.38;;;43.28;16.68
73767;BME280;62074;43.530;-5.646;2022-09-09T12:48:09;101907.47;;;44.23;16.35
73767;BME280;62074;43.530;-5.646;2022-09-09T12:50:48;101897.94;;;40.87;19.56
73767;BME280;62074;43.530;-5.646;2022-09-09T12:53:29;101897.94;;;43.14;16.52
73767;BME280;62074;43.530;-5.646;2022-09-09T12:56:04;101909.47;;;42.74;17.63
73767;BME280;62074;43.530;-5.646;2022-09-09T12:58:32;101892.63;;;42.84;16.45
73767;BME280;62074;43.530;-5.646;2022-09-09T13:00:59;101892.97;;;44.85;15.56
73767;BME280;62074;43.530;-5.646;2022-09-09T13:03:26;101899.75;;;43.98;15.80
73767;BME280;62074;43.530;-5.646;2022-09-09T13:05:52;101885.22;;;44.71;15.19
73767;BME280;62074;43.530;-5.646;2022-09-09T13:08:19;101885.09;;;41.28;16.90
73767;BME280;62074;43.530;-5.646;2022-09-09T13:13:34;101878.94;;;43.41;16.43
73767;BME280;62074;43.530;-5.646;2022-09-09T13:16:02;101902.06;;;42.66;17.03
73767;BME280;62074;43.530;-5.646;2022-09-09T13:18:32;101894.81;;;41.71;18.30
73767;BME280;62074;43.530;-5.646;2022-09-09T13:20:59;101894.22;;;40.86;18.86
73767;BME280;62074;43.530;-5.646;2022-09-09T13:23:30;101884.00;;;39.18;21.15
73767;BME280;62074;43.530;-5.646;2022-09-09T13:26:02;101886.34;;;42.18;18.27
73767;BME280;62074;43.530;-5.646;2022-09-09T13:28:30;101878.50;;;42.08;18.08
73767;BME280;62074;43.530;-5.646;2022-09-09T13:31:20;101881.59;;;39.80;20.87
73767;BME280;62074;43.530;-5.646;2022-09-09T13:33:46;101879.16;;;38.08;22.08
73767;BME280;62074;43.530;-5.646;2022-09-09T13:36:12;101884.19;;;37.95;23.15
73767;BME280;62074;43.530;-5.646;2022-09-09T13:41:21;101884.28;;;36.30;24.79
73767;BME280;62074;43.530;-5.646;2022-09-09T13:43:49;101850.16;;;35.90;25.62
